»·PEaware :: N5002T KSBA-KSBA

N5002T :: KSBA-KSBA

FLIGHT INFORMATION

Flight Status: Arrived
Operator: Privately registered:
United States
More flights under this callsign
Pilot: Hunter M. (19355)
Aircraft: CESSNA 172 SKYHAWK
(C172)
More flights by this aircraft type
Origin: KSBA Santa Barbara Mun
United States
Destination: KSBA Santa Barbara Mun
United States
More flights between these airports :: More routes between these airports
Route: +HABUT
File this flight plan on PilotEdge
Remarks: Practice approaches
Altitude:
(Current/Filed)
3,000ft
Speed:
(Current/Filed)
118kts
Departed: 07-Jul-19 08:45 AM
Arrived: 07-Jul-19 09:12 AM
Distance/Time
Traveled:
0nm/0:27
Distance/Time
To Go:
Arrived

Flight Plot

Page will automatically refresh every two minutes.


Map Options




Map Legend


Flown Route
Filed Route
Departure Airport
Arrival Airport
Navaid (VOR, NDB)
Fix

Horizontal Profiles

Position Reports

Time Latitude Longitude Heading Altitude Ground
Speed
07-Jul-19 08:16 34.431455 -119.831911 357 13ft 0kts
07-Jul-19 08:17 34.431455 -119.831911 357 13ft 0kts
07-Jul-19 08:19 34.431455 -119.831911 357 13ft 0kts
07-Jul-19 08:20 34.431455 -119.831911 357 13ft 0kts
07-Jul-19 08:21 34.431455 -119.831911 357 13ft 0kts
07-Jul-19 08:22 34.431455 -119.831911 357 13ft 0kts
07-Jul-19 08:23 34.431455 -119.831911 357 13ft 0kts
07-Jul-19 08:24 34.431455 -119.831911 357 13ft 0kts
07-Jul-19 08:25 34.431455 -119.831911 357 13ft 0kts
07-Jul-19 08:26 34.431455 -119.831911 357 13ft 0kts
07-Jul-19 08:27 34.431455 -119.831911 357 13ft 0kts
07-Jul-19 08:28 34.431455 -119.831911 357 13ft 0kts
07-Jul-19 08:29 34.431455 -119.831911 357 13ft 0kts
07-Jul-19 08:30 34.431455 -119.831911 357 13ft 0kts
07-Jul-19 08:31 34.431455 -119.831911 357 13ft 0kts
07-Jul-19 08:32 34.431455 -119.831911 357 13ft 0kts
07-Jul-19 08:33 34.431455 -119.831911 357 13ft 0kts
07-Jul-19 08:34 34.431455 -119.831911 357 13ft 0kts
07-Jul-19 08:35 34.431455 -119.831911 357 13ft 0kts
07-Jul-19 08:36 34.431455 -119.831911 357 13ft 0kts
07-Jul-19 08:37 34.431455 -119.831911 357 13ft 0kts
07-Jul-19 08:38 34.431455 -119.831911 357 13ft 0kts
07-Jul-19 08:39 34.432664 -119.833451 283 13ft 7kts
07-Jul-19 08:40 34.432037 -119.835523 249 13ft 0kts
07-Jul-19 08:41 34.430951 -119.839106 244 13ft 6kts
07-Jul-19 08:43 34.430736 -119.839615 241 13ft 0kts
07-Jul-19 08:44 34.430287 -119.840208 165 13ft 0kts
07-Jul-19 08:45 34.417846 -119.836424 166 222ft 90kts
07-Jul-19 08:46 34.392717 -119.829119 166 943ft 94kts
07-Jul-19 08:47 34.367292 -119.821737 166 1636ft 93kts
07-Jul-19 08:48 34.342440 -119.814578 166 2319ft 90kts
07-Jul-19 08:49 34.318097 -119.807622 166 2966ft 92kts
07-Jul-19 08:50 34.300383 -119.817073 282 3197ft 103kts
07-Jul-19 08:51 34.306645 -119.849579 283 3751ft 95kts
07-Jul-19 08:52 34.312169 -119.881811 283 4007ft 103kts
07-Jul-19 08:53 34.317933 -119.916133 283 3999ft 104kts
07-Jul-19 08:54 34.323739 -119.950294 283 3996ft 102kts
07-Jul-19 08:55 34.329384 -119.983520 282 3983ft 101kts
07-Jul-19 08:56 34.334654 -120.016898 286 3964ft 102kts
07-Jul-19 08:57 34.340771 -120.049873 278 4010ft 99kts
07-Jul-19 08:58 34.346060 -120.082890 283 4022ft 99kts
07-Jul-19 08:59 34.353854 -120.115145 319 4008ft 99kts
07-Jul-19 08:59 34.376177 -120.120348 354 4010ft 99kts
07-Jul-19 09:01 34.407634 -120.123979 0 3939ft 96kts
07-Jul-19 09:02 34.416142 -120.097611 87 3957ft 93kts
07-Jul-19 09:03 34.413641 -120.067151 83 3994ft 93kts
07-Jul-19 09:04 34.417090 -120.035668 82 3597ft 92kts
07-Jul-19 09:04 34.422806 -120.010307 68 3134ft 94kts
07-Jul-19 09:06 34.425414 -119.973838 91 2370ft 90kts
07-Jul-19 09:06 34.424856 -119.948187 89 1604ft 90kts
07-Jul-19 09:07 34.425893 -119.919924 86 1097ft 74kts
07-Jul-19 09:09 34.427184 -119.890626 90 703ft 73kts
07-Jul-19 09:09 34.427314 -119.870294 88 367ft 72kts
07-Jul-19 09:10 34.427666 -119.847282 88 14ft 56kts
07-Jul-19 09:11 34.427836 -119.838502 87 13ft 19kts
07-Jul-19 09:12 34.430913 -119.838953 359 13ft 0kts
07-Jul-19 09:13 34.432059 -119.837483 337 13ft 0kts

Navigation Log

Ident Type
Flight plan parsing failed, navigation log unavailable